createdAt,value
2022-11-07T00:00:33.548Z,14.87
2022-11-07T00:03:01.969Z,14.30
2022-11-07T00:05:30.840Z,22.57
2022-11-07T00:07:59.200Z,15.30
2022-11-07T00:10:28.978Z,14.13
2022-11-07T00:12:57.820Z,14.00
2022-11-07T00:15:26.160Z,15.33
2022-11-07T00:17:55.381Z,14.20
2022-11-07T00:20:23.800Z,12.57
2022-11-07T00:22:52.170Z,13.63
2022-11-07T00:25:21.529Z,12.77
2022-11-07T00:27:51.270Z,12.40
2022-11-07T00:30:20.720Z,11.07
2022-11-07T00:32:49.118Z,10.68
2022-11-07T00:35:18.476Z,10.70
2022-11-07T00:37:47.320Z,10.30
2022-11-07T00:40:15.741Z,10.37
2022-11-07T00:42:45.341Z,9.80
2022-11-07T00:45:15.124Z,10.33
2022-11-07T00:47:44.330Z,10.63
2022-11-07T00:50:12.743Z,10.83
2022-11-07T00:52:41.779Z,9.37
2022-11-07T00:55:11.113Z,8.80
2022-11-07T00:57:39.561Z,8.10
2022-11-07T01:00:09.999Z,7.10
2022-11-07T01:02:40.845Z,7.27
2022-11-07T01:05:13.187Z,7.13
2022-11-07T01:07:42.310Z,6.47
2022-11-07T01:10:11.135Z,5.53
2022-11-07T01:12:39.512Z,5.17
2022-11-07T01:15:09.336Z,5.70
2022-11-07T01:17:37.749Z,4.63
2022-11-07T01:20:09.201Z,5.10
2022-11-07T01:22:38.110Z,4.03
2022-11-07T01:25:06.947Z,4.50
2022-11-07T01:27:35.827Z,4.05
2022-11-07T01:30:04.587Z,4.15
2022-11-07T01:32:33.335Z,3.83
2022-11-07T01:35:01.796Z,4.10
2022-11-07T01:37:32.547Z,4.10
2022-11-07T01:40:01.406Z,4.77
2022-11-07T01:42:30.334Z,4.10
2022-11-07T01:45:00.850Z,3.97
2022-11-07T01:47:33.159Z,4.13
2022-11-07T01:50:02.125Z,4.20
2022-11-07T01:52:36.554Z,3.87
2022-11-07T01:55:10.482Z,3.90
2022-11-07T01:57:43.701Z,3.28
2022-11-07T02:00:16.709Z,2.90
2022-11-07T02:02:49.592Z,3.42
2022-11-07T02:05:23.753Z,3.22
2022-11-07T02:07:54.137Z,3.03
2022-11-07T02:10:23.548Z,2.67
2022-11-07T02:12:52.575Z,3.03
2022-11-07T02:15:21.518Z,2.50
2022-11-07T02:17:50.629Z,2.50
2022-11-07T02:20:19.562Z,2.87
2022-11-07T02:22:54.463Z,2.70
2022-11-07T02:25:25.517Z,2.40
2022-11-07T02:27:58.018Z,2.20
2022-11-07T02:30:30.282Z,2.33
2022-11-07T02:32:58.782Z,3.03
2022-11-07T02:35:38.423Z,2.83
2022-11-07T02:38:11.145Z,3.33
2022-11-07T02:40:41.501Z,3.50
2022-11-07T02:43:12.095Z,13.13
2022-11-07T02:45:45.165Z,6.80
2022-11-07T02:48:14.674Z,2.40
2022-11-07T02:50:43.811Z,2.53
2022-11-07T02:53:13.286Z,2.73
2022-11-07T02:55:43.254Z,2.53
2022-11-07T02:58:12.069Z,2.15
2022-11-07T03:00:40.918Z,3.00
2022-11-07T03:03:09.376Z,2.90
2022-11-07T03:05:38.421Z,2.17
2022-11-07T03:08:06.940Z,2.40
2022-11-07T03:10:36.398Z,2.15
2022-11-07T03:13:06.653Z,2.10
2022-11-07T03:15:35.547Z,2.47
2022-11-07T03:18:04.444Z,2.60
2022-11-07T03:20:32.868Z,2.30
2022-11-07T03:23:01.569Z,2.57
2022-11-07T03:25:29.960Z,2.20
2022-11-07T03:27:59.144Z,2.17
2022-11-07T03:30:29.525Z,3.03
2022-11-07T03:32:58.629Z,3.17
2022-11-07T03:35:28.123Z,2.78
2022-11-07T03:37:57.493Z,2.07
2022-11-07T03:40:26.511Z,2.28
2022-11-07T03:42:54.921Z,2.17
2022-11-07T03:45:24.386Z,2.37
2022-11-07T03:47:54.076Z,2.50
2022-11-07T03:50:23.834Z,2.15
2022-11-07T03:52:52.810Z,2.00
2022-11-07T03:55:21.166Z,2.53
2022-11-07T03:57:50.564Z,1.83
2022-11-07T04:00:19.838Z,2.30
2022-11-07T04:02:48.306Z,2.10
2022-11-07T04:05:19.161Z,2.40
2022-11-07T04:07:47.508Z,2.17
2022-11-07T04:10:16.465Z,2.17
2022-11-07T04:13:03.853Z,2.30
2022-11-07T04:15:49.666Z,2.43
2022-11-07T04:18:18.406Z,2.30
2022-11-07T04:20:48.094Z,1.97
2022-11-07T04:23:17.229Z,2.57
2022-11-07T04:26:04.174Z,2.70
2022-11-07T04:28:32.621Z,5.97
2022-11-07T04:31:01.048Z,2.37
2022-11-07T04:33:29.497Z,2.40
2022-11-07T04:35:59.584Z,2.25
2022-11-07T04:38:28.454Z,2.30
2022-11-07T04:40:58.112Z,2.20
2022-11-07T04:43:28.510Z,2.43
2022-11-07T04:45:57.878Z,2.40
2022-11-07T04:48:27.436Z,2.07
2022-11-07T04:50:56.943Z,2.17
2022-11-07T04:53:27.077Z,1.80
2022-11-07T04:55:55.453Z,1.90
2022-11-07T04:58:24.255Z,2.20
2022-11-07T05:00:52.662Z,2.15
2022-11-07T05:03:21.529Z,2.20
2022-11-07T05:05:50.023Z,20.30
2022-11-07T05:08:18.899Z,9.43
2022-11-07T05:10:48.605Z,3.10
2022-11-07T05:13:18.940Z,2.83
2022-11-07T05:15:47.355Z,3.23
2022-11-07T05:18:15.746Z,2.90
2022-11-07T05:20:44.477Z,2.57
2022-11-07T05:23:15.859Z,2.30
2022-11-07T05:25:47.001Z,2.40
2022-11-07T05:28:22.079Z,2.10
2022-11-07T05:30:55.206Z,2.57
2022-11-07T05:33:24.088Z,2.40
2022-11-07T05:35:52.474Z,2.30
2022-11-07T05:38:21.915Z,2.53
2022-11-07T05:40:50.638Z,2.30
2022-11-07T05:43:20.847Z,2.33
2022-11-07T05:45:49.274Z,2.60
2022-11-07T05:48:18.756Z,3.00
2022-11-07T05:50:47.114Z,3.17
2022-11-07T05:53:16.293Z,2.63
2022-11-07T05:55:45.301Z,2.57
2022-11-07T05:58:14.270Z,2.97
2022-11-07T06:00:44.334Z,3.37
2022-11-07T06:03:14.411Z,3.00
2022-11-07T06:05:44.533Z,3.27
2022-11-07T06:08:14.622Z,2.63
2022-11-07T06:10:44.536Z,2.73
2022-11-07T06:13:16.541Z,3.57
2022-11-07T06:15:46.964Z,4.25
2022-11-07T06:18:17.585Z,3.67
2022-11-07T06:20:46.852Z,2.70
2022-11-07T06:23:15.654Z,3.30
2022-11-07T06:25:44.398Z,2.80
2022-11-07T06:28:14.449Z,2.60
2022-11-07T06:30:43.214Z,3.37
2022-11-07T06:33:15.994Z,2.83
2022-11-07T06:35:45.181Z,3.03
2022-11-07T06:38:15.354Z,3.10
2022-11-07T06:40:44.333Z,4.93
2022-11-07T06:43:15.487Z,4.33
2022-11-07T06:45:45.277Z,5.43
2022-11-07T06:48:15.290Z,4.33
2022-11-07T06:50:43.705Z,4.30
2022-11-07T06:53:14.808Z,3.10
2022-11-07T06:55:43.511Z,4.20
2022-11-07T06:58:11.941Z,5.30
2022-11-07T07:00:40.412Z,3.70
2022-11-07T07:03:08.913Z,4.67
2022-11-07T07:05:38.730Z,4.77
2022-11-07T07:08:08.570Z,5.03
2022-11-07T07:10:39.347Z,5.50
2022-11-07T07:13:08.045Z,3.90
2022-11-07T07:15:49.925Z,2.63
2022-11-07T07:18:20.082Z,4.27
2022-11-07T07:20:50.562Z,4.77
2022-11-07T07:23:20.985Z,5.43
2022-11-07T07:25:49.773Z,5.03
2022-11-07T07:28:18.144Z,5.60
2022-11-07T07:30:51.607Z,4.55
2022-11-07T07:33:20.695Z,4.50
2022-11-07T07:35:50.456Z,5.20
2022-11-07T07:38:18.895Z,4.50
2022-11-07T07:40:47.271Z,4.03
2022-11-07T07:43:16.117Z,3.20
2022-11-07T07:45:44.801Z,3.90
2022-11-07T07:48:13.185Z,4.47
2022-11-07T07:50:41.628Z,3.13
2022-11-07T07:53:11.326Z,2.53
2022-11-07T07:55:39.687Z,2.47
2022-11-07T07:58:08.215Z,3.05
2022-11-07T08:00:36.720Z,3.80
2022-11-07T08:03:06.598Z,3.63
2022-11-07T08:05:35.100Z,4.25
2022-11-07T08:08:03.641Z,3.67
2022-11-07T08:10:42.735Z,3.33
2022-11-07T08:13:12.032Z,3.83
2022-11-07T08:15:40.470Z,2.97
2022-11-07T08:18:08.829Z,3.53
2022-11-07T08:20:37.260Z,3.55
2022-11-07T08:23:11.264Z,2.58
2022-11-07T08:25:50.981Z,2.72
2022-11-07T08:28:20.804Z,2.33
2022-11-07T08:30:56.296Z,2.58
2022-11-07T08:33:24.799Z,2.72
2022-11-07T08:35:55.296Z,2.67
2022-11-07T08:38:24.050Z,2.30
2022-11-07T08:40:54.237Z,2.53
2022-11-07T08:43:22.711Z,2.40
2022-11-07T08:45:51.248Z,2.20
2022-11-07T08:48:19.772Z,2.05
2022-11-07T08:50:52.008Z,1.80
2022-11-07T08:53:20.893Z,2.20
2022-11-07T08:55:49.585Z,1.60
2022-11-07T08:58:20.191Z,1.52
2022-11-07T09:00:48.602Z,1.83
2022-11-07T09:03:43.526Z,1.40
2022-11-07T09:06:05.858Z,1.52
2022-11-07T09:08:34.408Z,1.65
2022-11-07T09:11:03.971Z,1.40
2022-11-07T09:13:35.095Z,1.30
2022-11-07T09:16:06.042Z,1.63
2022-11-07T09:18:34.979Z,1.80
2022-11-07T09:21:03.392Z,1.42
2022-11-07T09:23:32.769Z,1.48
2022-11-07T09:26:01.738Z,0.90
2022-11-07T09:28:30.747Z,1.60
2022-11-07T09:31:02.668Z,1.60
2022-11-07T09:33:31.942Z,1.80
2022-11-07T09:36:00.886Z,1.52
2022-11-07T09:38:29.778Z,1.50
2022-11-07T09:41:05.533Z,1.48
2022-11-07T09:43:49.033Z,1.80
2022-11-07T09:46:28.309Z,1.63
2022-11-07T09:49:02.517Z,1.40
2022-11-07T09:51:36.774Z,1.58
2022-11-07T09:54:09.660Z,1.42
2022-11-07T09:56:38.209Z,1.40
2022-11-07T09:59:14.198Z,1.30
2022-11-07T10:01:44.428Z,2.05
2022-11-07T10:04:24.835Z,1.70
2022-11-07T10:06:59.894Z,1.80
2022-11-07T10:09:39.359Z,1.27
2022-11-07T10:12:18.281Z,1.40
2022-11-07T10:14:55.326Z,1.35
2022-11-07T10:17:37.235Z,1.38
2022-11-07T10:20:24.310Z,1.40
2022-11-07T10:23:05.006Z,1.20
2022-11-07T10:25:42.350Z,1.35
2022-11-07T10:28:15.907Z,1.20
2022-11-07T10:30:47.284Z,1.20
2022-11-07T10:33:26.585Z,1.50
2022-11-07T10:35:58.874Z,1.08
2022-11-07T10:38:29.202Z,0.98
2022-11-07T10:40:58.033Z,1.25
2022-11-07T10:43:34.097Z,1.20
2022-11-07T10:46:05.139Z,0.93
2022-11-07T10:48:35.878Z,1.10
2022-11-07T10:51:04.804Z,1.30
2022-11-07T10:53:33.294Z,1.20
2022-11-07T10:56:02.284Z,1.65
2022-11-07T10:58:36.699Z,1.20
2022-11-07T11:01:08.273Z,1.27
2022-11-07T11:03:44.956Z,1.10
2022-11-07T11:06:23.674Z,1.50
2022-11-07T11:08:53.569Z,1.25
2022-11-07T11:11:31.943Z,1.50
2022-11-07T11:14:06.636Z,2.10
2022-11-07T11:16:38.664Z,1.67
2022-11-07T11:19:19.863Z,1.30
2022-11-07T11:21:51.846Z,1.20
2022-11-07T11:24:35.672Z,1.23
2022-11-07T11:27:14.435Z,1.30
2022-11-07T11:29:51.838Z,0.77
2022-11-07T11:32:28.407Z,1.00
2022-11-07T11:35:07.105Z,1.00
2022-11-07T11:37:39.802Z,0.80
2022-11-07T11:40:15.991Z,1.02
2022-11-07T11:42:50.392Z,1.00
2022-11-07T11:45:22.792Z,0.90
2022-11-07T11:48:00.254Z,1.20
2022-11-07T11:50:42.833Z,0.90
2022-11-07T11:53:17.341Z,0.95
2022-11-07T11:55:59.214Z,0.85
2022-11-07T11:58:41.967Z,0.90
2022-11-07T12:01:20.067Z,1.00
2022-11-07T12:04:14.905Z,0.80
2022-11-07T12:06:47.062Z,0.80
2022-11-07T12:09:24.771Z,0.80
2022-11-07T12:12:03.094Z,1.00
2022-11-07T12:15:05.893Z,1.23
2022-11-07T12:17:41.688Z,0.77
2022-11-07T12:20:20.696Z,1.00
2022-11-07T12:23:00.479Z,1.00
2022-11-07T12:25:31.968Z,0.98
2022-11-07T12:28:11.702Z,1.10
2022-11-07T12:30:51.481Z,0.80
2022-11-07T12:33:31.169Z,0.73
2022-11-07T12:36:04.010Z,0.85
2022-11-07T12:39:02.907Z,0.70
2022-11-07T12:41:41.664Z,1.02
2022-11-07T12:44:27.954Z,0.80
2022-11-07T12:46:59.822Z,0.88
2022-11-07T12:49:44.454Z,0.98
2022-11-07T12:52:28.253Z,1.23
2022-11-07T12:55:01.709Z,1.10
2022-11-07T12:57:33.559Z,0.93
2022-11-07T13:00:06.996Z,0.88
2022-11-07T13:02:50.708Z,0.82
2022-11-07T13:05:35.260Z,0.80
2022-11-07T13:08:11.783Z,1.05
2022-11-07T13:10:52.843Z,0.90
2022-11-07T13:13:27.691Z,1.10
2022-11-07T13:16:24.268Z,0.80
2022-11-07T13:18:44.922Z,0.95
2022-11-07T13:21:13.437Z,0.68
2022-11-07T13:23:41.899Z,0.80
2022-11-07T13:26:44.595Z,0.98
2022-11-07T13:29:02.488Z,0.77
2022-11-07T13:31:34.178Z,0.80
2022-11-07T13:34:24.150Z,1.10
2022-11-07T13:37:00.790Z,1.15
2022-11-07T13:39:30.932Z,0.82
2022-11-07T13:42:02.334Z,0.95
2022-11-07T13:44:36.643Z,0.90
2022-11-07T13:47:11.360Z,0.90
2022-11-07T13:49:44.878Z,0.85
2022-11-07T13:52:22.061Z,0.80
2022-11-07T13:54:55.314Z,0.98
2022-11-07T13:57:29.444Z,0.82
2022-11-07T14:00:05.134Z,0.90
2022-11-07T14:02:42.982Z,0.90
2022-11-07T14:05:17.902Z,0.90
2022-11-07T14:07:50.509Z,1.20
2022-11-07T14:10:24.908Z,0.75
2022-11-07T14:13:08.038Z,1.23
2022-11-07T14:15:37.494Z,0.70
2022-11-07T14:18:07.638Z,0.90
2022-11-07T14:20:36.017Z,0.75
2022-11-07T14:23:04.419Z,0.95
2022-11-07T14:25:35.403Z,1.30
2022-11-07T14:28:08.516Z,1.13
2022-11-07T14:30:42.249Z,0.90
2022-11-07T14:33:18.674Z,0.80
2022-11-07T14:35:50.111Z,0.82
2022-11-07T14:38:22.826Z,0.90
2022-11-07T14:40:52.093Z,0.82
2022-11-07T14:43:24.518Z,1.13
2022-11-07T14:46:12.471Z,0.80
2022-11-07T14:48:43.758Z,0.90
2022-11-07T14:51:14.651Z,0.95
2022-11-07T14:53:51.217Z,0.90
2022-11-07T14:56:24.237Z,0.90
2022-11-07T14:58:54.738Z,1.00
2022-11-07T15:01:27.786Z,0.95
2022-11-07T15:03:59.213Z,0.95
2022-11-07T15:06:34.227Z,1.08
2022-11-07T15:09:05.835Z,0.90
2022-11-07T15:11:35.990Z,0.70
2022-11-07T15:14:22.278Z,1.35
2022-11-07T15:16:52.178Z,0.90
2022-11-07T15:19:23.731Z,0.80
2022-11-07T15:21:54.456Z,0.90
2022-11-07T15:24:33.530Z,1.00
2022-11-07T15:27:03.227Z,1.02
2022-11-07T15:29:36.431Z,1.00
2022-11-07T15:32:14.228Z,1.00
2022-11-07T15:35:03.902Z,1.10
2022-11-07T15:37:31.937Z,0.80
2022-11-07T15:40:00.375Z,0.88
2022-11-07T15:42:28.889Z,1.05
2022-11-07T15:44:59.005Z,1.20
2022-11-07T15:47:27.441Z,0.80
2022-11-07T15:49:57.109Z,0.90
2022-11-07T15:52:25.937Z,0.95
2022-11-07T15:54:54.343Z,0.82
2022-11-07T15:57:23.075Z,1.02
2022-11-07T15:59:51.501Z,0.90
2022-11-07T16:02:21.306Z,0.90
2022-11-07T16:04:50.653Z,0.80
2022-11-07T16:07:20.894Z,1.35
2022-11-07T16:09:49.994Z,1.90
2022-11-07T16:12:20.749Z,1.08
2022-11-07T16:14:49.602Z,4.80
2022-11-07T16:17:20.075Z,2.70
2022-11-07T16:19:50.551Z,2.60
2022-11-07T16:22:18.948Z,1.95
2022-11-07T16:24:47.313Z,3.45
2022-11-07T16:27:18.778Z,3.63
2022-11-07T16:29:47.430Z,2.10
2022-11-07T16:32:18.625Z,1.52
2022-11-07T16:34:47.903Z,1.60
2022-11-07T16:37:17.655Z,1.63
2022-11-07T16:39:46.359Z,2.53
2022-11-07T16:42:16.522Z,3.30
2022-11-07T16:44:46.963Z,2.03
2022-11-07T16:47:16.239Z,2.22
2022-11-07T16:49:44.703Z,2.15
2022-11-07T16:52:16.016Z,1.85
2022-11-07T16:54:46.290Z,1.77
2022-11-07T16:57:17.182Z,1.70
2022-11-07T16:59:46.750Z,1.92
2022-11-07T17:02:21.655Z,1.98
2022-11-07T17:04:51.916Z,2.63
2022-11-07T17:07:22.519Z,2.50
2022-11-07T17:09:52.912Z,2.00
2022-11-07T17:12:23.062Z,3.83
2022-11-07T17:14:52.663Z,5.50
2022-11-07T17:17:21.452Z,6.82
2022-11-07T17:19:50.079Z,5.20
2022-11-07T17:22:19.336Z,4.70
2022-11-07T17:24:48.179Z,3.75
2022-11-07T17:27:22.829Z,2.88
2022-11-07T17:29:51.830Z,2.72
2022-11-07T17:32:20.660Z,2.92
2022-11-07T17:35:10.611Z,2.00
2022-11-07T17:37:39.832Z,2.50
2022-11-07T17:40:09.136Z,2.60
2022-11-07T17:42:40.018Z,2.10
2022-11-07T17:45:09.846Z,2.35
2022-11-07T17:47:39.287Z,2.78
2022-11-07T17:50:08.624Z,2.78
2022-11-07T17:52:37.305Z,6.25
2022-11-07T17:55:06.962Z,16.83
2022-11-07T17:57:35.413Z,20.83
2022-11-07T18:00:07.674Z,12.15
2022-11-07T18:02:38.255Z,12.10
2022-11-07T18:05:08.008Z,13.85
2022-11-07T18:07:38.798Z,14.95
2022-11-07T18:10:08.421Z,11.52
2022-11-07T18:12:37.490Z,9.90
2022-11-07T18:15:08.634Z,10.32
2022-11-07T18:17:37.467Z,8.70
2022-11-07T18:20:07.254Z,9.38
2022-11-07T18:22:37.159Z,7.78
2022-11-07T18:25:07.714Z,10.60
2022-11-07T18:27:36.998Z,8.40
2022-11-07T18:30:08.651Z,9.23
2022-11-07T18:32:37.170Z,6.00
2022-11-07T18:35:07.007Z,6.22
2022-11-07T18:37:35.748Z,6.00
2022-11-07T18:40:06.115Z,5.65
2022-11-07T18:42:34.565Z,5.25
2022-11-07T18:45:03.670Z,4.00
2022-11-07T18:47:34.318Z,6.13
2022-11-07T18:50:03.817Z,23.60
2022-11-07T18:52:32.964Z,36.05
2022-11-07T18:55:01.332Z,44.03
2022-11-07T18:57:30.688Z,70.53
2022-11-07T18:59:59.070Z,60.13
2022-11-07T19:02:28.617Z,45.78
2022-11-07T19:04:58.469Z,34.08
2022-11-07T19:07:26.879Z,31.98
2022-11-07T19:09:55.734Z,16.90
2022-11-07T19:12:24.475Z,8.55
2022-11-07T19:14:53.269Z,15.80
2022-11-07T19:17:21.658Z,14.10
2022-11-07T19:19:50.054Z,9.10
2022-11-07T19:22:19.826Z,4.45
2022-11-07T19:24:48.970Z,4.85
2022-11-07T19:27:17.700Z,7.85
2022-11-07T19:29:47.243Z,7.75
2022-11-07T19:32:16.004Z,9.07
2022-11-07T19:34:44.461Z,6.43
2022-11-07T19:37:13.119Z,7.75
2022-11-07T19:39:42.846Z,11.00
2022-11-07T19:42:11.787Z,13.32
2022-11-07T19:44:46.325Z,12.88
2022-11-07T19:47:18.148Z,24.08
2022-11-07T19:49:46.559Z,45.13
2022-11-07T19:52:15.445Z,34.00
2022-11-07T19:54:45.507Z,33.65
2022-11-07T19:57:13.872Z,27.10
2022-11-07T19:59:42.548Z,22.85
2022-11-07T20:05:01.623Z,30.17
2022-11-07T20:07:30.595Z,33.40
2022-11-07T20:10:01.294Z,31.63
2022-11-07T20:12:30.175Z,29.48
2022-11-07T20:14:58.713Z,27.23
2022-11-07T20:17:27.942Z,25.55
2022-11-07T20:19:59.926Z,23.25
2022-11-07T20:22:31.294Z,19.27
2022-11-07T20:25:02.091Z,15.32
2022-11-07T20:27:32.162Z,15.32
2022-11-07T20:30:01.459Z,14.43
2022-11-07T20:32:30.386Z,13.70
2022-11-07T20:34:59.309Z,14.25
2022-11-07T20:37:27.850Z,19.92
2022-11-07T20:39:56.352Z,21.83
2022-11-07T20:42:27.201Z,25.88
2022-11-07T20:44:55.809Z,25.80
2022-11-07T20:47:25.123Z,21.52
2022-11-07T20:49:54.536Z,18.52
2022-11-07T20:52:23.114Z,17.02
2022-11-07T20:54:52.486Z,16.20
2022-11-07T20:57:20.954Z,14.45
2022-11-07T20:59:51.774Z,14.35
2022-11-07T21:02:20.294Z,14.57
2022-11-07T21:05:16.265Z,27.65
2022-11-07T21:07:39.278Z,46.05
2022-11-07T21:10:08.156Z,31.27
2022-11-07T21:12:37.822Z,30.38
2022-11-07T21:15:09.252Z,27.95
2022-11-07T21:17:38.180Z,25.77
2022-11-07T21:20:10.561Z,20.90
2022-11-07T21:22:39.254Z,21.35
2022-11-07T21:25:08.754Z,19.40
2022-11-07T21:27:37.862Z,11.60
2022-11-07T21:30:09.738Z,8.75
2022-11-07T21:32:38.596Z,12.57
2022-11-07T21:35:08.615Z,13.98
2022-11-07T21:37:37.221Z,12.55
2022-11-07T21:40:07.694Z,10.90
2022-11-07T21:42:36.244Z,13.25
2022-11-07T21:45:06.525Z,12.35
2022-11-07T21:47:38.849Z,12.93
2022-11-07T21:50:43.106Z,12.93
2022-11-07T21:53:07.340Z,11.38
2022-11-07T21:55:36.518Z,10.50
2022-11-07T21:58:05.129Z,10.73
2022-11-07T22:00:36.518Z,10.73
2022-11-07T22:03:07.471Z,9.63
2022-11-07T22:05:39.256Z,9.88
2022-11-07T22:08:08.470Z,9.77
2022-11-07T22:10:37.700Z,9.70
2022-11-07T22:13:07.871Z,9.32
2022-11-07T22:15:36.988Z,9.23
2022-11-07T22:18:06.938Z,9.23
2022-11-07T22:20:39.405Z,8.80
2022-11-07T22:23:08.010Z,8.45
2022-11-07T22:25:37.116Z,8.02
2022-11-07T22:28:06.149Z,7.53
2022-11-07T22:30:34.616Z,7.32
2022-11-07T22:33:03.929Z,7.10
2022-11-07T22:35:34.267Z,7.18
2022-11-07T22:38:03.705Z,6.05
2022-11-07T22:40:32.214Z,4.90
2022-11-07T22:43:01.486Z,4.15
2022-11-07T22:45:30.366Z,4.30
2022-11-07T22:47:59.172Z,4.10
2022-11-07T22:50:27.569Z,3.85
2022-11-07T22:52:57.804Z,3.88
2022-11-07T22:55:26.714Z,3.38
2022-11-07T22:57:55.402Z,3.20
2022-11-07T23:00:24.025Z,3.37
2022-11-07T23:02:52.423Z,3.47
2022-11-07T23:05:21.498Z,3.13
2022-11-07T23:07:50.872Z,3.10
2022-11-07T23:10:21.544Z,3.65
2022-11-07T23:12:50.840Z,3.95
2022-11-07T23:15:19.697Z,4.00
2022-11-07T23:17:48.511Z,3.58
2022-11-07T23:20:31.067Z,5.47
2022-11-07T23:22:59.774Z,4.78
2022-11-07T23:25:31.188Z,4.72
2022-11-07T23:27:59.573Z,4.32
2022-11-07T23:30:30.655Z,5.30
2022-11-07T23:32:59.618Z,4.65
2022-11-07T23:35:27.961Z,5.27
2022-11-07T23:37:57.280Z,5.83
2022-11-07T23:40:26.106Z,5.10
2022-11-07T23:42:55.892Z,6.63
2022-11-07T23:45:42.602Z,5.33
2022-11-07T23:48:31.597Z,6.43
2022-11-07T23:51:03.603Z,6.18
2022-11-07T23:53:50.808Z,6.53
2022-11-07T23:56:20.272Z,6.00
2022-11-07T23:59:08.836Z,5.60
